createdAt,value
2019-04-29T00:01:36.898Z,77.45
2019-04-29T00:04:06.650Z,77.40
2019-04-29T00:06:36.304Z,77.39
2019-04-29T00:09:10.448Z,77.44
2019-04-29T00:11:40.614Z,77.33
2019-04-29T00:14:10.620Z,77.26
2019-04-29T00:16:45.999Z,77.59
2019-04-29T00:19:30.364Z,77.67
2019-04-29T00:22:00.682Z,77.58
2019-04-29T00:24:31.408Z,77.48
2019-04-29T00:27:01.148Z,77.34
2019-04-29T00:29:30.891Z,77.23
2019-04-29T00:32:00.799Z,77.25
2019-04-29T00:34:30.459Z,77.19
2019-04-29T00:37:31.638Z,77.26
2019-04-29T00:40:34.719Z,77.39
2019-04-29T00:43:28.000Z,77.74
2019-04-29T00:45:58.013Z,78.02
2019-04-29T00:48:28.011Z,78.21
2019-04-29T00:50:57.682Z,78.45
2019-04-29T00:53:27.860Z,78.48
2019-04-29T00:55:59.506Z,78.53
2019-04-29T00:58:29.449Z,78.47
2019-04-29T01:00:59.287Z,78.45
2019-04-29T01:03:29.052Z,78.50
2019-04-29T01:05:58.794Z,78.44
2019-04-29T01:08:28.615Z,78.63
2019-04-29T01:10:58.550Z,79.26
2019-04-29T01:13:28.295Z,79.30
2019-04-29T01:15:58.198Z,79.15
2019-04-29T01:18:27.936Z,78.74
2019-04-29T01:20:57.990Z,78.26
2019-04-29T01:23:27.662Z,78.04
2019-04-29T01:26:00.684Z,77.96
2019-04-29T01:28:49.593Z,77.95
2019-04-29T01:31:24.335Z,77.95
2019-04-29T01:33:57.990Z,78.00
2019-04-29T01:36:33.012Z,78.00
2019-04-29T01:39:04.564Z,78.13
2019-04-29T01:41:42.438Z,78.19
2019-04-29T01:44:12.122Z,78.16
2019-04-29T01:46:41.819Z,78.08
2019-04-29T01:49:11.500Z,77.99
2019-04-29T01:51:41.480Z,77.98
2019-04-29T01:54:11.137Z,78.00
2019-04-29T01:56:41.399Z,77.98
2019-04-29T01:59:12.099Z,77.89
2019-04-29T02:01:41.922Z,77.90
2019-04-29T02:04:11.646Z,77.87
2019-04-29T02:06:41.315Z,77.51
2019-04-29T02:09:15.636Z,77.51
2019-04-29T02:11:45.375Z,77.75
2019-04-29T02:14:15.046Z,77.73
2019-04-29T02:16:44.708Z,77.85
2019-04-29T02:19:14.381Z,77.90
2019-04-29T02:22:03.085Z,77.88
2019-04-29T02:24:33.136Z,77.89
2019-04-29T02:27:05.609Z,77.92
2019-04-29T02:29:34.214Z,78.08
2019-04-29T02:32:04.869Z,78.22
2019-04-29T02:34:34.545Z,78.36
2019-04-29T02:37:06.856Z,78.43
2019-04-29T02:39:48.171Z,78.40
2019-04-29T02:42:43.130Z,78.33
2019-04-29T02:45:21.023Z,78.28
2019-04-29T02:47:53.538Z,78.47
2019-04-29T02:50:23.526Z,78.46
2019-04-29T02:52:53.303Z,78.39
2019-04-29T02:55:28.761Z,78.33
2019-04-29T02:58:06.275Z,78.40
2019-04-29T03:01:01.190Z,78.39
2019-04-29T03:03:39.086Z,78.45
2019-04-29T03:06:08.904Z,78.39
2019-04-29T03:08:38.825Z,78.26
2019-04-29T03:11:08.571Z,78.21
2019-04-29T03:13:38.816Z,78.33
2019-04-29T03:16:08.820Z,78.29
2019-04-29T03:18:42.490Z,77.98
2019-04-29T03:21:18.433Z,77.83
2019-04-29T03:23:48.109Z,77.75
2019-04-29T03:26:17.830Z,77.70
2019-04-29T03:28:47.493Z,77.84
2019-04-29T03:31:17.180Z,77.86
2019-04-29T03:33:46.993Z,77.84
2019-04-29T03:36:16.799Z,77.84
2019-04-29T03:38:46.454Z,77.86
2019-04-29T03:41:16.099Z,77.95
2019-04-29T03:43:45.770Z,77.90
2019-04-29T03:46:15.436Z,78.00
2019-04-29T03:48:45.108Z,78.21
2019-04-29T03:51:14.785Z,78.34
2019-04-29T03:53:44.447Z,78.50
2019-04-29T03:56:14.351Z,78.70
2019-04-29T03:58:44.041Z,78.73
2019-04-29T04:01:22.403Z,78.62
2019-04-29T04:03:56.791Z,78.75
2019-04-29T04:06:36.038Z,78.70
2019-04-29T04:09:15.450Z,78.87
2019-04-29T04:11:45.122Z,78.76
2019-04-29T04:14:15.042Z,78.65
2019-04-29T04:17:20.263Z,78.48
2019-04-29T04:19:48.300Z,78.57
2019-04-29T04:22:18.057Z,78.70
2019-04-29T04:24:47.804Z,78.57
2019-04-29T04:27:17.480Z,78.52
2019-04-29T04:29:48.145Z,78.62
2019-04-29T04:32:17.843Z,78.76
2019-04-29T04:34:47.505Z,79.09
2019-04-29T04:37:17.192Z,79.24
2019-04-29T04:39:46.862Z,79.29
2019-04-29T04:42:16.888Z,79.37
2019-04-29T04:44:49.886Z,79.05
2019-04-29T04:47:20.075Z,78.74
2019-04-29T04:49:49.518Z,78.61
2019-04-29T04:52:18.471Z,78.57
2019-04-29T04:54:48.270Z,78.71
2019-04-29T04:57:17.153Z,78.83
2019-04-29T04:59:47.136Z,78.95
2019-04-29T05:02:16.819Z,79.27
2019-04-29T05:04:46.585Z,79.45
2019-04-29T05:07:17.237Z,79.48
2019-04-29T05:09:47.954Z,79.46
2019-04-29T05:12:17.868Z,79.38
2019-04-29T05:14:47.529Z,79.47
2019-04-29T05:17:17.208Z,79.68
2019-04-29T05:19:46.893Z,79.91
2019-04-29T05:22:16.586Z,80.05
2019-04-29T05:24:46.273Z,80.04
2019-04-29T05:27:16.208Z,80.01
2019-04-29T05:29:46.113Z,79.97
2019-04-29T05:32:15.798Z,79.99
2019-04-29T05:34:48.008Z,80.00
2019-04-29T05:37:56.523Z,79.98
2019-04-29T05:40:40.792Z,80.10
2019-04-29T05:43:11.060Z,80.07
2019-04-29T05:45:47.882Z,80.21
2019-04-29T05:48:16.439Z,80.50
2019-04-29T05:50:57.835Z,80.66
2019-04-29T05:53:33.460Z,80.77
2019-04-29T05:56:03.137Z,80.86
2019-04-29T05:58:37.620Z,81.03
2019-04-29T06:01:11.008Z,81.28
2019-04-29T06:03:44.045Z,81.58
2019-04-29T06:06:12.544Z,82.00
2019-04-29T06:08:42.155Z,82.27
2019-04-29T06:11:12.089Z,82.37
2019-04-29T06:13:41.763Z,82.70
2019-04-29T06:16:15.968Z,82.91
2019-04-29T06:18:43.153Z,83.04
2019-04-29T06:21:12.909Z,82.93
2019-04-29T06:23:42.581Z,82.85
2019-04-29T06:26:12.757Z,82.95
2019-04-29T06:28:43.425Z,82.28
2019-04-29T06:31:15.426Z,81.51
2019-04-29T06:33:45.138Z,81.24
2019-04-29T06:36:14.946Z,81.21
2019-04-29T06:38:44.908Z,80.34
2019-04-29T06:41:14.603Z,80.24
2019-04-29T06:43:44.305Z,79.86
2019-04-29T06:46:14.354Z,79.28
2019-04-29T06:48:44.126Z,77.95
2019-04-29T06:51:14.162Z,77.25
2019-04-29T06:53:43.858Z,76.03
2019-04-29T06:56:13.535Z,74.51
2019-04-29T06:58:43.378Z,74.01
2019-04-29T07:01:13.072Z,72.86
2019-04-29T07:03:42.967Z,72.54
2019-04-29T07:06:13.628Z,72.21
2019-04-29T07:08:43.347Z,72.15
2019-04-29T07:11:13.110Z,71.42
2019-04-29T07:13:42.843Z,71.36
2019-04-29T07:16:12.987Z,70.26
2019-04-29T07:18:48.338Z,69.26
2019-04-29T07:21:14.477Z,68.16
2019-04-29T07:23:44.147Z,68.30
2019-04-29T07:26:13.852Z,68.43
2019-04-29T07:28:43.548Z,68.24
2019-04-29T07:31:13.237Z,66.95
2019-04-29T07:33:42.969Z,66.82
2019-04-29T07:36:12.669Z,66.01
2019-04-29T07:38:46.487Z,65.86
2019-04-29T07:41:18.460Z,65.49
2019-04-29T07:43:45.406Z,64.39
2019-04-29T07:46:36.463Z,63.54
2019-04-29T07:49:05.885Z,63.64
2019-04-29T07:51:39.438Z,62.66
2019-04-29T07:54:11.065Z,62.66
2019-04-29T07:56:42.350Z,63.44
2019-04-29T07:59:11.343Z,63.51
2019-04-29T08:01:41.253Z,62.60
2019-04-29T08:04:09.712Z,63.32
2019-04-29T08:06:42.654Z,64.26
2019-04-29T08:09:09.732Z,62.54
2019-04-29T08:11:38.210Z,63.15
2019-04-29T08:14:06.600Z,62.49
2019-04-29T08:16:34.902Z,60.66
2019-04-29T08:19:05.044Z,61.11
2019-04-29T08:21:33.494Z,59.94
2019-04-29T08:24:01.795Z,59.99
2019-04-29T08:26:33.588Z,59.33
2019-04-29T08:29:00.826Z,58.76
2019-04-29T08:31:29.890Z,57.72
2019-04-29T08:33:58.213Z,57.43
2019-04-29T08:36:26.926Z,57.42
2019-04-29T08:39:08.015Z,57.44
2019-04-29T08:41:28.797Z,55.13
2019-04-29T08:44:16.198Z,55.13
2019-04-29T08:46:51.818Z,55.60
2019-04-29T08:49:17.218Z,54.05
2019-04-29T08:51:45.658Z,55.20
2019-04-29T08:54:16.018Z,54.84
2019-04-29T08:57:01.656Z,54.99
2019-04-29T08:59:20.672Z,54.80
2019-04-29T09:01:48.858Z,55.22
2019-04-29T09:04:18.551Z,55.14
2019-04-29T09:06:48.229Z,54.78
2019-04-29T09:09:28.452Z,54.51
2019-04-29T09:11:49.618Z,54.31
2019-04-29T09:14:19.465Z,54.51
2019-04-29T09:16:49.161Z,54.98
2019-04-29T09:19:18.868Z,55.08
2019-04-29T09:21:51.512Z,55.76
2019-04-29T09:24:22.571Z,55.59
2019-04-29T09:26:58.233Z,56.19
2019-04-29T09:29:32.257Z,55.49
2019-04-29T09:32:02.213Z,53.84
2019-04-29T09:34:31.980Z,54.01
2019-04-29T09:37:01.997Z,54.81
2019-04-29T09:39:43.157Z,54.07
2019-04-29T09:42:30.743Z,53.13
2019-04-29T09:45:05.465Z,53.07
2019-04-29T09:47:35.426Z,52.72
2019-04-29T09:50:06.739Z,52.62
2019-04-29T09:52:36.857Z,52.15
2019-04-29T09:55:07.216Z,51.85
2019-04-29T09:57:36.906Z,52.88
2019-04-29T10:00:14.055Z,52.23
2019-04-29T10:02:52.065Z,51.39
2019-04-29T10:05:40.300Z,51.73
2019-04-29T10:08:09.567Z,52.48
2019-04-29T10:10:38.019Z,52.25
2019-04-29T10:13:06.324Z,52.43
2019-04-29T10:15:55.934Z,53.06
2019-04-29T10:18:50.740Z,52.12
2019-04-29T10:21:21.405Z,51.91
2019-04-29T10:23:49.221Z,52.01
2019-04-29T10:26:17.806Z,51.20
2019-04-29T10:28:59.733Z,49.99
2019-04-29T10:31:28.183Z,50.82
2019-04-29T10:33:56.641Z,50.64
2019-04-29T10:36:26.338Z,50.10
2019-04-29T10:38:56.551Z,50.34
2019-04-29T10:41:30.495Z,48.71
2019-04-29T10:44:25.878Z,48.43
2019-04-29T10:47:07.386Z,47.78
2019-04-29T10:49:55.327Z,49.04
2019-04-29T10:52:23.730Z,48.85
2019-04-29T10:54:55.352Z,47.68
2019-04-29T10:57:25.555Z,47.67
2019-04-29T11:00:01.376Z,47.89
2019-04-29T11:02:40.196Z,47.91
2019-04-29T11:05:34.889Z,46.40
2019-04-29T11:08:15.321Z,46.38
2019-04-29T11:10:45.359Z,46.65
2019-04-29T11:13:15.372Z,46.17
2019-04-29T11:15:49.436Z,46.65
2019-04-29T11:18:22.575Z,46.54
2019-04-29T11:20:48.912Z,47.30
2019-04-29T11:23:27.278Z,47.29
2019-04-29T11:26:15.281Z,46.83
2019-04-29T11:28:46.940Z,47.55
2019-04-29T11:31:19.314Z,47.11
2019-04-29T11:33:59.661Z,47.14
2019-04-29T11:36:29.429Z,47.92
2019-04-29T11:38:59.114Z,48.69
2019-04-29T11:41:31.645Z,47.08
2019-04-29T11:44:01.344Z,47.78
2019-04-29T11:46:31.169Z,48.52
2019-04-29T11:49:02.577Z,48.84
2019-04-29T11:52:07.942Z,48.92
2019-04-29T11:54:18.073Z,48.00
2019-04-29T11:56:46.699Z,47.54
2019-04-29T11:59:34.294Z,48.44
2019-04-29T12:02:37.690Z,48.24
2019-04-29T12:05:04.118Z,48.65
2019-04-29T12:07:34.111Z,48.59
2019-04-29T12:10:06.472Z,49.24
2019-04-29T12:12:35.932Z,48.75
2019-04-29T12:15:34.722Z,48.65
2019-04-29T12:18:12.236Z,48.92
2019-04-29T12:21:13.279Z,48.65
2019-04-29T12:23:43.343Z,48.58
2019-04-29T12:26:13.377Z,47.70
2019-04-29T12:28:44.499Z,48.08
2019-04-29T12:31:29.998Z,47.74
2019-04-29T12:34:09.073Z,47.77
2019-04-29T12:36:55.023Z,47.68
2019-04-29T12:39:42.865Z,48.40
2019-04-29T12:42:28.471Z,48.29
2019-04-29T12:45:01.353Z,48.58
2019-04-29T12:47:33.104Z,48.57
2019-04-29T12:50:02.802Z,48.21
2019-04-29T12:52:32.518Z,47.79
2019-04-29T12:55:19.813Z,49.02
2019-04-29T12:57:35.988Z,48.90
2019-04-29T13:00:09.166Z,49.34
2019-04-29T13:03:01.437Z,49.03
2019-04-29T13:05:57.910Z,49.67
2019-04-29T13:08:28.518Z,49.67
2019-04-29T13:11:00.805Z,50.33
2019-04-29T13:13:30.629Z,49.83
2019-04-29T13:16:20.831Z,50.93
2019-04-29T13:19:10.646Z,49.80
2019-04-29T13:21:30.787Z,49.64
2019-04-29T13:24:13.577Z,49.99
2019-04-29T13:26:33.357Z,50.27
2019-04-29T13:29:03.576Z,49.22
2019-04-29T13:31:38.374Z,48.81
2019-04-29T13:34:22.963Z,48.51
2019-04-29T13:36:39.045Z,49.47
2019-04-29T13:39:09.696Z,49.60
2019-04-29T13:41:56.167Z,50.04
2019-04-29T13:44:11.597Z,51.15
2019-04-29T13:47:03.247Z,52.80
2019-04-29T13:49:50.596Z,53.43
2019-04-29T13:52:20.749Z,51.35
2019-04-29T17:10:10.605Z,71.25
2019-04-29T17:12:47.963Z,71.35
2019-04-29T17:15:26.083Z,71.70
2019-04-29T17:17:55.582Z,71.74
2019-04-29T17:20:25.273Z,71.41
2019-04-29T17:22:54.955Z,71.08
2019-04-29T17:25:25.108Z,71.02
2019-04-29T17:28:12.317Z,71.12
2019-04-29T17:31:12.452Z,71.17
2019-04-29T17:33:50.191Z,71.37
2019-04-29T17:36:23.803Z,71.73
2019-04-29T17:38:51.679Z,71.75
2019-04-29T17:41:21.380Z,71.95
2019-04-29T17:44:02.334Z,72.37
2019-04-29T17:46:50.693Z,73.09
2019-04-29T17:49:30.759Z,73.22
2019-04-29T17:52:02.793Z,73.18
2019-04-29T17:54:37.026Z,73.65
2019-04-29T17:57:31.467Z,73.62
2019-04-29T18:00:15.873Z,73.74
2019-04-29T18:03:05.284Z,74.14
2019-04-29T18:05:55.025Z,74.11
2019-04-29T18:08:27.339Z,73.91
2019-04-29T18:10:59.844Z,74.01
2019-04-29T18:13:30.546Z,73.98
2019-04-29T18:16:03.968Z,73.82
2019-04-29T18:18:46.568Z,73.84
2019-04-29T18:21:43.389Z,73.87
2019-04-29T18:24:25.349Z,74.03
2019-04-29T18:27:00.294Z,73.95
2019-04-29T18:29:28.600Z,74.07
2019-04-29T18:32:00.487Z,74.29
2019-04-29T18:34:29.273Z,73.87
2019-04-29T18:37:00.366Z,73.82
2019-04-29T18:39:31.650Z,73.99
2019-04-29T18:42:03.208Z,73.97
2019-04-29T18:44:33.024Z,73.99
2019-04-29T18:47:02.703Z,74.08
2019-04-29T18:49:32.386Z,74.30
2019-04-29T18:52:03.828Z,74.55
2019-04-29T18:54:33.489Z,74.50
2019-04-29T18:57:03.183Z,74.41
2019-04-29T18:59:36.688Z,74.40
2019-04-29T19:02:09.355Z,74.61
2019-04-29T19:04:48.496Z,74.49
2019-04-29T19:07:17.522Z,74.48
2019-04-29T19:09:47.292Z,74.29
2019-04-29T19:12:17.054Z,74.26
2019-04-29T19:14:47.868Z,74.15
2019-04-29T19:17:17.632Z,74.35
2019-04-29T19:19:47.313Z,74.47
2019-04-29T19:22:16.990Z,74.59
2019-04-29T19:24:48.196Z,74.67
2019-04-29T19:27:17.983Z,74.58
2019-04-29T19:29:47.733Z,74.81
2019-04-29T19:32:18.775Z,74.87
2019-04-29T19:34:50.199Z,75.18
2019-04-29T19:37:18.842Z,75.46
2019-04-29T19:39:47.143Z,75.66
2019-04-29T19:42:28.316Z,75.95
2019-04-29T19:44:45.930Z,76.09
2019-04-29T19:47:16.687Z,76.00
2019-04-29T19:49:46.544Z,76.01
2019-04-29T19:52:27.956Z,76.15
2019-04-29T19:54:48.690Z,76.55
2019-04-29T19:57:18.452Z,76.36
2019-04-29T19:59:51.995Z,76.29
2019-04-29T20:02:20.118Z,76.18
2019-04-29T20:04:58.936Z,75.91
2019-04-29T20:07:27.567Z,75.78
2019-04-29T20:10:04.046Z,75.80
2019-04-29T20:12:29.593Z,75.89
2019-04-29T20:15:01.980Z,75.98
2019-04-29T20:17:53.142Z,75.93
2019-04-29T20:20:35.042Z,75.99
2019-04-29T20:23:03.112Z,75.94
2019-04-29T20:25:38.066Z,75.96
2019-04-29T20:28:08.636Z,75.89
2019-04-29T20:30:37.042Z,75.82
2019-04-29T20:33:09.596Z,76.20
2019-04-29T20:35:40.454Z,76.30
2019-04-29T20:38:09.687Z,76.38
2019-04-29T20:40:43.062Z,76.64
2019-04-29T20:43:11.449Z,76.89
2019-04-29T20:45:41.219Z,77.06
2019-04-29T20:48:15.327Z,77.15
2019-04-29T20:50:46.106Z,77.11
2019-04-29T20:53:19.202Z,77.14
2019-04-29T20:55:49.159Z,77.00
2019-04-29T20:58:23.398Z,77.21
2019-04-29T21:00:50.372Z,77.23
2019-04-29T21:03:27.693Z,77.19
2019-04-29T21:05:54.914Z,77.15
2019-04-29T21:08:23.322Z,77.69
2019-04-29T21:10:55.445Z,77.52
2019-04-29T21:13:33.581Z,77.69
2019-04-29T21:16:11.588Z,77.64
2019-04-29T21:18:45.480Z,77.63
2019-04-29T21:21:12.837Z,77.49
2019-04-29T21:23:42.636Z,77.62
2019-04-29T21:26:12.394Z,77.55
2019-04-29T21:28:44.637Z,77.43
2019-04-29T21:31:18.525Z,77.37
2019-04-29T21:33:45.628Z,77.49
2019-04-29T21:36:26.484Z,77.58
2019-04-29T21:39:02.337Z,77.55
2019-04-29T21:41:42.326Z,77.54
2019-04-29T21:44:12.112Z,77.59
2019-04-29T21:46:40.358Z,77.57
2019-04-29T21:49:11.687Z,77.66
2019-04-29T21:51:41.773Z,77.73
2019-04-29T21:54:09.717Z,77.82
2019-04-29T21:56:39.740Z,77.70
2019-04-29T21:59:12.271Z,77.68
2019-04-29T22:01:41.561Z,77.72
2019-04-29T22:04:11.270Z,77.90
2019-04-29T22:06:41.039Z,78.11
2019-04-29T22:09:12.432Z,78.10
2019-04-29T22:11:44.590Z,78.08
2019-04-29T22:14:15.547Z,78.01
2019-04-29T22:16:47.571Z,77.98
2019-04-29T22:19:17.586Z,78.14
2019-04-29T22:21:47.550Z,78.36
2019-04-29T22:24:17.389Z,78.42
2019-04-29T22:26:47.159Z,78.43
2019-04-29T22:29:16.859Z,78.41
2019-04-29T22:31:46.691Z,78.50
2019-04-29T22:34:19.028Z,78.68
2019-04-29T22:36:52.661Z,78.76
2019-04-29T22:39:21.714Z,78.80
2019-04-29T22:42:01.587Z,78.74
2019-04-29T22:44:31.606Z,78.79
2019-04-29T22:47:01.301Z,78.77
2019-04-29T22:49:32.062Z,79.01
2019-04-29T22:52:01.760Z,79.31
2019-04-29T22:54:31.444Z,79.88
2019-04-29T22:57:01.239Z,80.36
2019-04-29T22:59:30.911Z,80.34
2019-04-29T23:02:01.016Z,80.35
2019-04-29T23:04:30.707Z,80.25
2019-04-29T23:07:00.471Z,79.99
2019-04-29T23:09:30.674Z,79.80
2019-04-29T23:12:00.362Z,79.79
2019-04-29T23:14:30.133Z,79.81
2019-04-29T23:16:59.830Z,79.85
2019-04-29T23:19:29.578Z,79.73
2019-04-29T23:22:07.512Z,79.54
2019-04-29T23:24:55.838Z,79.43
2019-04-29T23:27:25.933Z,79.40
2019-04-29T23:29:55.877Z,79.39
2019-04-29T23:32:25.565Z,79.64
2019-04-29T23:34:57.235Z,79.57
2019-04-29T23:37:29.458Z,79.63
2019-04-29T23:39:59.174Z,79.59
2019-04-29T23:42:28.852Z,79.50
2019-04-29T23:44:58.551Z,79.77
2019-04-29T23:47:28.318Z,79.89
2019-04-29T23:49:58.011Z,79.83
2019-04-29T23:52:27.695Z,80.07
2019-04-29T23:54:56.301Z,80.21
2019-04-29T23:57:46.133Z,80.30
